Time;durP1;ratioP1;P1;durP2;ratioP2;P2;SDS_P1;SDS_P2;PMS_P1;PMS_P2;Temp;Humidity;BMP_temperature;BMP_pressure;BME280_temperature;BME280_humidity;BME280_pressure;Samples;Min_cycle;Max_cycle;Signal;HPM_P1;HPM_P2
2021/12/12 00:00:30;;;;;;;5.35;4.75;;;2.30;99.90;;;;;;5049999;28;20204;-63
2021/12/12 00:03:01;;;;;;;4.90;4.30;;;2.30;99.90;;;;;;5049757;28;20224;-63
2021/12/12 00:05:32;;;;;;;4.57;4.13;;;2.30;99.90;;;;;;5050027;28;20699;-63
2021/12/12 00:07:59;;;;;;;5.78;4.78;;;2.30;99.90;;;;;;5050168;28;20208;-63
2021/12/12 00:10:33;;;;;;;4.50;4.10;;;2.40;99.90;;;;;;5049820;28;20197;-63
2021/12/12 00:13:05;;;;;;;5.60;4.45;;;2.40;99.90;;;;;;5049430;28;20228;-63
2021/12/12 00:15:32;;;;;;;4.35;3.95;;;2.40;99.90;;;;;;5049968;28;20204;-63
2021/12/12 00:18:00;;;;;;;5.55;5.05;;;2.40;99.90;;;;;;5073036;22;20324;-92
2021/12/12 00:20:28;;;;;;;5.45;4.95;;;2.40;99.90;;;;;;5052617;28;20470;-90
2021/12/12 00:22:59;;;;;;;5.40;4.53;;;2.40;99.90;;;;;;5053721;28;20201;-93
2021/12/12 00:25:29;;;;;;;4.85;4.07;;;2.40;99.90;;;;;;5053041;28;20221;-91
2021/12/12 00:27:56;;;;;;;6.20;4.97;;;2.40;99.90;;;;;;5073054;22;20228;-68
2021/12/12 00:30:23;;;;;;;4.53;4.03;;;2.40;99.90;;;;;;5069642;28;20619;-68
2021/12/12 00:32:51;;;;;;;4.78;4.30;;;2.50;99.90;;;;;;5069072;28;20220;-68
2021/12/12 00:35:18;;;;;;;4.65;4.10;;;2.50;99.90;;;;;;5069467;28;20300;-68
2021/12/12 00:37:48;;;;;;;5.03;4.13;;;2.50;99.90;;;;;;5069832;28;20212;-67
2021/12/12 00:40:25;;;;;;;5.00;4.50;;;2.40;99.90;;;;;;5069374;28;20211;-67
2021/12/12 00:42:56;;;;;;;4.75;4.10;;;2.40;99.90;;;;;;5069163;28;20220;-68
2021/12/12 00:45:23;;;;;;;5.95;3.97;;;2.40;99.90;;;;;;5069489;28;20226;-68
2021/12/12 00:47:51;;;;;;;4.57;4.10;;;2.40;99.90;;;;;;5071349;28;20207;-67
2021/12/12 00:50:24;;;;;;;4.10;3.70;;;2.40;99.90;;;;;;5073167;28;20208;-67
2021/12/12 00:52:52;;;;;;;6.22;4.72;;;2.40;99.90;;;;;;5072511;28;20220;-68
2021/12/12 00:55:19;;;;;;;5.35;3.85;;;2.40;99.90;;;;;;5073000;28;20201;-68
2021/12/12 00:57:50;;;;;;;5.60;4.20;;;2.40;99.90;;;;;;5072874;28;20781;-68
2021/12/12 01:00:21;;;;;;;4.50;4.05;;;2.40;99.90;;;;;;5073157;28;20429;-68
2021/12/12 01:02:49;;;;;;;4.63;4.22;;;2.40;99.90;;;;;;5072528;28;20715;-67
2021/12/12 01:05:16;;;;;;;5.30;4.43;;;2.50;99.90;;;;;;5072644;28;20247;-68
2021/12/12 01:07:45;;;;;;;4.70;4.28;;;2.50;99.90;;;;;;5073105;28;20200;-67
2021/12/12 01:10:21;;;;;;;5.00;4.00;;;2.50;99.90;;;;;;5072515;28;20204;-67
2021/12/12 01:12:48;;;;;;;4.32;3.50;;;2.50;99.90;;;;;;5072405;28;20220;-69
2021/12/12 01:15:21;;;;;;;4.30;3.90;;;2.50;99.90;;;;;;5072527;28;20254;-69
2021/12/12 01:17:53;;;;;;;4.55;4.07;;;2.50;99.90;;;;;;5073027;28;20223;-69
2021/12/12 01:20:25;;;;;;;6.82;5.22;;;2.50;99.90;;;;;;5073158;28;20222;-68
2021/12/12 01:22:55;;;;;;;4.65;4.25;;;2.50;99.90;;;;;;5072518;28;20229;-68
2021/12/12 01:25:25;;;;;;;5.05;4.53;;;2.50;99.90;;;;;;5072671;28;20714;-69
2021/12/12 01:27:53;;;;;;;4.93;4.43;;;2.50;99.90;;;;;;5072553;28;20685;-68
2021/12/12 01:30:22;;;;;;;4.82;4.32;;;2.50;99.90;;;;;;5072576;28;20207;-69
2021/12/12 01:32:49;;;;;;;5.35;4.85;;;2.50;99.90;;;;;;5071889;28;20782;-68
2021/12/12 01:35:19;;;;;;;5.00;4.60;;;2.50;99.90;;;;;;5072594;28;20275;-68
2021/12/12 01:38:51;;;;;;;4.32;3.90;;;2.50;99.90;;;;;;5072720;28;20200;-69
2021/12/12 01:40:42;;;;;;;5.38;4.25;;;2.60;99.90;;;;;;5072381;28;20204;-68
2021/12/12 01:43:16;;;;;;;6.20;5.00;;;2.60;99.90;;;;;;5072069;28;20941;-68
2021/12/12 01:45:48;;;;;;;5.60;4.80;;;2.60;99.90;;;;;;5072442;28;20219;-69
2021/12/12 01:48:20;;;;;;;5.10;4.15;;;2.50;99.90;;;;;;5072593;28;20200;-68
2021/12/12 01:50:50;;;;;;;4.68;4.18;;;2.50;99.90;;;;;;5072331;28;20204;-68
2021/12/12 01:53:20;;;;;;;6.05;4.78;;;2.50;99.90;;;;;;5072747;28;20578;-68
2021/12/12 01:55:50;;;;;;;4.65;4.25;;;2.50;99.90;;;;;;5072420;28;20197;-69
2021/12/12 01:58:19;;;;;;;5.20;3.95;;;2.60;99.90;;;;;;5072104;28;20204;-69
2021/12/12 02:00:53;;;;;;;5.35;4.50;;;2.60;99.90;;;;;;5072005;28;20200;-69
2021/12/12 02:03:22;;;;;;;5.78;4.68;;;2.60;99.90;;;;;;5072163;28;20211;-69
2021/12/12 02:05:50;;;;;;;4.80;4.30;;;2.60;99.90;;;;;;5072354;28;20217;-69
2021/12/12 02:08:21;;;;;;;4.47;4.07;;;2.60;99.90;;;;;;5071811;28;20208;-69
2021/12/12 02:10:51;;;;;;;5.72;4.15;;;2.60;99.90;;;;;;5072104;28;20223;-68
2021/12/12 02:13:21;;;;;;;8.10;4.60;;;2.60;99.90;;;;;;5071814;28;20207;-68
2021/12/12 02:15:51;;;;;;;5.32;4.80;;;2.60;99.90;;;;;;5072231;28;20197;-68
2021/12/12 02:18:27;;;;;;;4.60;4.20;;;2.60;99.90;;;;;;5071854;28;20207;-68
2021/12/12 02:21:07;;;;;;;4.85;4.35;;;2.50;99.90;;;;;;5071289;28;20239;-70
2021/12/12 02:23:49;;;;;;;3.88;3.53;;;2.50;99.90;;;;;;5071922;28;20234;-68
2021/12/12 02:37:16;;;;;;;4.45;4.05;;;2.50;99.90;;;;;;5071510;28;20196;-69
2021/12/12 02:39:45;;;;;;;6.55;4.45;;;2.50;99.90;;;;;;5071692;28;20570;-69
2021/12/12 02:42:14;;;;;;;5.05;4.55;;;2.50;99.90;;;;;;5070844;28;20249;-68
2021/12/12 02:44:43;;;;;;;5.00;4.10;;;2.50;99.90;;;;;;5071267;28;20220;-68
2021/12/12 02:47:13;;;;;;;5.25;4.32;;;2.50;99.90;;;;;;5071371;28;20695;-68
2021/12/12 02:49:53;;;;;;;3.92;3.53;;;2.50;99.90;;;;;;5071280;28;20207;-69
2021/12/12 02:52:25;;;;;;;4.50;3.95;;;2.50;99.90;;;;;;5070799;28;20220;-68
2021/12/12 02:54:54;;;;;;;6.35;4.20;;;2.40;99.90;;;;;;5071003;28;20201;-69
2021/12/12 02:57:20;;;;;;;4.22;3.83;;;2.40;99.90;;;;;;5070959;28;20216;-68
2021/12/12 02:59:50;;;;;;;4.55;4.03;;;2.40;99.90;;;;;;5071443;28;20208;-68
2021/12/12 03:02:23;;;;;;;5.10;4.40;;;2.30;99.90;;;;;;5070314;28;20282;-68
2021/12/12 03:04:52;;;;;;;5.93;3.65;;;2.30;99.90;;;;;;5071055;28;20220;-68
2021/12/12 03:07:19;;;;;;;6.70;3.40;;;2.30;99.90;;;;;;5070624;28;20207;-68
2021/12/12 03:09:48;;;;;;;7.43;3.60;;;2.30;99.90;;;;;;5071224;28;20196;-68
2021/12/12 03:12:19;;;;;;;4.22;3.70;;;2.20;99.90;;;;;;5070092;28;20221;-68
2021/12/12 03:14:47;;;;;;;4.28;3.30;;;2.10;99.90;;;;;;5071260;28;20196;-68
2021/12/12 03:17:17;;;;;;;6.22;3.72;;;2.10;99.90;;;;;;5070856;28;20208;-68
2021/12/12 03:19:45;;;;;;;4.60;3.35;;;2.00;99.90;;;;;;5070863;28;20204;-69
2021/12/12 03:22:12;;;;;;;3.70;3.33;;;1.90;99.90;;;;;;5070127;28;20706;-68
2021/12/12 03:24:39;;;;;;;3.60;3.20;;;1.80;99.90;;;;;;5070669;28;20223;-68
2021/12/12 03:27:07;;;;;;;6.55;3.35;;;1.80;99.90;;;;;;5070537;28;20678;-68
2021/12/12 03:29:36;;;;;;;3.45;3.08;;;1.70;99.90;;;;;;5070898;28;20204;-68
2021/12/12 03:32:07;;;;;;;4.40;3.55;;;1.60;99.90;;;;;;5070124;28;20235;-68
2021/12/12 03:34:37;;;;;;;6.15;4.00;;;1.60;99.90;;;;;;5070819;28;20200;-69
2021/12/12 03:37:06;;;;;;;4.88;3.67;;;1.50;99.90;;;;;;5072518;28;20254;-69
2021/12/12 03:39:36;;;;;;;3.88;3.50;;;1.40;99.90;;;;;;5070817;28;20203;-68
2021/12/12 03:42:08;;;;;;;3.72;3.25;;;1.40;99.90;;;;;;5069728;28;20231;-68
2021/12/12 03:44:38;;;;;;;3.95;3.40;;;1.30;99.90;;;;;;5070702;28;20257;-68
2021/12/12 03:47:09;;;;;;;3.53;3.22;;;1.20;99.90;;;;;;5070228;28;20204;-68
2021/12/12 03:49:37;;;;;;;3.60;3.17;;;1.10;99.90;;;;;;5070634;28;20576;-69
2021/12/12 03:52:05;;;;;;;3.67;3.38;;;1.10;99.90;;;;;;5069768;28;20216;-68
2021/12/12 03:54:31;;;;;;;4.53;3.60;;;1.10;99.90;;;;;;5070567;28;20204;-69
2021/12/12 03:56:58;;;;;;;3.55;3.25;;;1.00;99.90;;;;;;5070571;28;20617;-69
2021/12/12 03:59:25;;;;;;;3.83;3.35;;;1.00;99.90;;;;;;5070144;28;20208;-68
2021/12/12 04:01:54;;;;;;;3.42;3.08;;;1.00;99.90;;;;;;5069876;28;20278;-69
2021/12/12 04:04:26;;;;;;;7.40;3.40;;;1.00;99.90;;;;;;5070139;28;20686;-68
2021/12/12 04:06:54;;;;;;;4.20;3.55;;;1.00;99.90;;;;;;5070292;28;20592;-68
2021/12/12 04:09:23;;;;;;;4.68;3.95;;;0.90;99.90;;;;;;5070332;28;20261;-68
2021/12/12 04:11:52;;;;;;;4.28;3.47;;;0.80;99.90;;;;;;5069509;28;20239;-68
2021/12/12 04:14:19;;;;;;;5.18;3.30;;;0.70;99.90;;;;;;5070267;28;20205;-68
2021/12/12 04:16:49;;;;;;;3.53;3.22;;;0.70;99.90;;;;;;5070121;28;20199;-69
2021/12/12 04:19:18;;;;;;;4.30;3.47;;;0.50;99.90;;;;;;5070229;28;20201;-68
2021/12/12 04:21:46;;;;;;;5.30;4.05;;;0.50;99.90;;;;;;5069528;28;20224;-68
2021/12/12 04:24:19;;;;;;;5.32;2.95;;;0.50;99.90;;;;;;5074115;28;20208;-68
2021/12/12 04:26:46;;;;;;;4.57;2.90;;;0.40;99.90;;;;;;5073972;28;20695;-69
2021/12/12 04:29:16;;;;;;;3.88;3.28;;;0.30;99.90;;;;;;5073792;28;20204;-69
2021/12/12 04:31:47;;;;;;;3.67;3.38;;;0.20;99.90;;;;;;5073688;28;20217;-68
2021/12/12 04:34:14;;;;;;;3.38;3.08;;;0.10;99.90;;;;;;5073634;28;20200;-69
2021/12/12 04:36:45;;;;;;;3.58;3.28;;;0.10;99.90;;;;;;5074061;28;20196;-68
2021/12/12 04:39:14;;;;;;;4.75;3.50;;;0.00;99.90;;;;;;5073576;28;20200;-68
2021/12/12 04:41:42;;;;;;;4.60;3.35;;;-0.10;99.90;;;;;;5073212;28;20227;-68
2021/12/12 04:44:10;;;;;;;3.75;3.35;;;-0.20;99.90;;;;;;5073593;28;20558;-68
2021/12/12 04:52:17;;;;;;;4.68;4.03;;;-0.30;99.90;;;;;;5072580;28;20277;-68
2021/12/12 04:54:49;;;;;;;7.03;4.22;;;-0.30;99.90;;;;;;5073718;28;20207;-68
2021/12/12 04:57:22;;;;;;;6.70;4.50;;;-0.30;99.90;;;;;;5073172;28;20241;-68
2021/12/12 04:59:54;;;;;;;5.32;3.88;;;-0.40;99.90;;;;;;5073689;28;20204;-68
2021/12/12 05:02:26;;;;;;;5.70;4.47;;;-0.40;99.90;;;;;;5072539;28;20231;-68
2021/12/12 05:04:59;;;;;;;6.32;4.40;;;-0.40;99.90;;;;;;5073285;28;20200;-68
2021/12/12 05:07:33;;;;;;;4.60;3.83;;;-0.40;99.90;;;;;;5073026;28;20691;-68
2021/12/12 05:10:04;;;;;;;5.40;3.92;;;-0.40;99.90;;;;;;5073466;28;20729;-68
2021/12/12 05:12:35;;;;;;;4.72;3.95;;;-0.40;99.90;;;;;;5072740;28;20227;-68
2021/12/12 05:15:07;;;;;;;5.95;3.83;;;-0.40;99.90;;;;;;5072877;28;20211;-69
2021/12/12 05:17:39;;;;;;;6.28;3.88;;;-0.50;99.90;;;;;;5073085;28;20208;-68
2021/12/12 05:20:11;;;;;;;5.35;3.95;;;-0.50;99.90;;;;;;5072537;28;20705;-68
2021/12/12 05:22:44;;;;;;;5.53;4.40;;;-0.50;99.90;;;;;;5072650;28;20225;-68
2021/12/12 05:25:18;;;;;;;4.50;4.10;;;-0.50;99.90;;;;;;5072283;28;20223;-68
2021/12/12 05:27:47;;;;;;;5.45;4.20;;;-0.50;99.90;;;;;;5072816;28;20736;-68
2021/12/12 05:30:17;;;;;;;5.15;4.40;;;-0.40;99.90;;;;;;5072425;28;20207;-69
2021/12/12 05:32:45;;;;;;;4.88;4.03;;;-0.40;99.90;;;;;;5072297;28;20630;-69
2021/12/12 05:35:13;;;;;;;4.60;4.20;;;-0.40;99.90;;;;;;5071010;28;20203;-68
2021/12/12 05:37:42;;;;;;;5.28;4.68;;;-0.40;99.90;;;;;;5072764;28;20695;-68
2021/12/12 05:40:11;;;;;;;12.25;4.80;;;-0.40;99.90;;;;;;5072652;28;20223;-69
2021/12/12 05:42:38;;;;;;;6.70;4.20;;;-0.40;99.90;;;;;;5071360;28;20578;-69
2021/12/12 05:45:09;;;;;;;5.30;4.20;;;-0.50;99.90;;;;;;5071643;28;20200;-68
2021/12/12 05:47:37;;;;;;;9.50;5.00;;;-0.50;99.90;;;;;;5071645;28;20193;-68
2021/12/12 05:50:05;;;;;;;5.45;4.07;;;-0.40;99.90;;;;;;5069122;28;20211;-69
2021/12/12 05:52:32;;;;;;;4.43;3.92;;;-0.50;99.90;;;;;;5071332;28;20217;-69
2021/12/12 05:55:05;;;;;;;4.35;3.72;;;-0.50;99.90;;;;;;5072592;28;20207;-69
2021/12/12 05:57:31;;;;;;;3.92;3.53;;;-0.50;99.90;;;;;;5072167;28;20208;-68
2021/12/12 05:59:59;;;;;;;4.70;4.25;;;-0.50;99.90;;;;;;5072296;28;20204;-68
2021/12/12 06:02:28;;;;;;;7.13;4.90;;;-0.50;99.90;;;;;;5071409;28;20259;-67
2021/12/12 06:04:56;;;;;;;5.55;4.53;;;-0.50;99.90;;;;;;5071236;28;20807;-67
2021/12/12 06:07:24;;;;;;;5.78;3.97;;;-0.50;99.90;;;;;;5071853;28;20227;-68
2021/12/12 06:09:51;;;;;;;5.85;4.15;;;-0.60;99.90;;;;;;5071909;28;20200;-68
2021/12/12 06:12:21;;;;;;;6.50;3.83;;;-0.60;99.90;;;;;;5071303;28;20225;-67
2021/12/12 06:14:49;;;;;;;5.45;4.43;;;-0.60;99.90;;;;;;5071845;28;20197;-67
2021/12/12 06:17:18;;;;;;;4.03;3.60;;;-0.60;99.90;;;;;;5071847;28;20616;-67
2021/12/12 06:19:47;;;;;;;6.38;4.20;;;-0.60;99.90;;;;;;5092701;22;20240;-89
2021/12/12 06:22:14;;;;;;;4.90;3.80;;;-0.60;99.90;;;;;;5050442;28;20198;-89
2021/12/12 06:24:41;;;;;;;5.80;5.28;;;-0.60;99.90;;;;;;5058795;28;20201;-91
2021/12/12 06:27:12;;;;;;;5.22;3.80;;;-0.70;99.90;;;;;;5058972;28;20233;-93
2021/12/12 06:29:41;;;;;;;4.90;3.70;;;-0.70;99.90;;;;;;5059023;28;20206;-93
2021/12/12 06:32:09;;;;;;;4.90;4.20;;;-0.70;99.90;;;;;;5058265;28;20249;-91
2021/12/12 06:34:36;;;;;;;7.43;4.47;;;-0.70;99.90;;;;;;5063667;22;20228;-63
2021/12/12 06:37:05;;;;;;;5.55;4.45;;;-0.70;99.90;;;;;;5051621;28;20544;-64
2021/12/12 06:39:35;;;;;;;4.93;4.40;;;-0.70;99.90;;;;;;5051369;28;20204;-64
2021/12/12 06:42:04;;;;;;;6.13;4.60;;;-0.80;99.90;;;;;;5050864;28;20221;-64
2021/12/12 06:44:31;;;;;;;4.57;4.13;;;-0.80;99.90;;;;;;5050874;28;20212;-64
2021/12/12 06:47:00;;;;;;;5.43;3.58;;;-0.80;99.90;;;;;;5061272;28;20699;-64
2021/12/12 06:49:28;;;;;;;6.53;4.68;;;-0.80;99.90;;;;;;5037665;28;20236;-64
2021/12/12 06:52:01;;;;;;;5.03;4.55;;;-0.80;99.90;;;;;;5030063;28;20225;-64
2021/12/12 06:54:30;;;;;;;5.18;4.20;;;-0.80;99.90;;;;;;5031576;28;20205;-64
2021/12/12 06:56:59;;;;;;;5.97;4.30;;;-0.80;99.90;;;;;;5030575;28;20660;-64
2021/12/12 06:59:30;;;;;;;4.78;3.85;;;-0.80;99.90;;;;;;5030839;28;20327;-64
2021/12/12 07:01:59;;;;;;;4.85;4.05;;;-0.80;99.90;;;;;;5029884;28;20222;-64
2021/12/12 07:04:28;;;;;;;6.07;4.40;;;-0.80;99.90;;;;;;5030349;28;20226;-64
2021/12/12 07:06:58;;;;;;;4.60;4.20;;;-0.70;99.90;;;;;;5030592;28;20218;-64
2021/12/12 07:09:27;;;;;;;4.80;4.32;;;-0.80;99.90;;;;;;5045387;28;20236;-64
2021/12/12 07:11:54;;;;;;;5.45;4.15;;;-0.80;99.90;;;;;;5044542;28;20231;-64
2021/12/12 07:14:21;;;;;;;5.20;4.43;;;-0.90;99.90;;;;;;5030002;28;20205;-64
2021/12/12 07:16:48;;;;;;;6.03;4.50;;;-0.80;99.90;;;;;;5030364;28;20695;-64
2021/12/12 07:19:17;;;;;;;5.00;4.47;;;-0.90;99.90;;;;;;5029938;28;20197;-64
2021/12/12 07:21:45;;;;;;;6.40;4.35;;;-0.90;99.90;;;;;;5030076;28;20217;-64
2021/12/12 07:24:14;;;;;;;6.30;4.57;;;-0.90;99.90;;;;;;5030236;28;20202;-64
2021/12/12 07:26:41;;;;;;;5.20;4.68;;;-0.90;99.90;;;;;;5030169;28;20221;-64
2021/12/12 07:29:08;;;;;;;5.10;4.00;;;-0.90;99.90;;;;;;5030489;28;20206;-64
2021/12/12 07:31:37;;;;;;;4.90;4.22;;;-0.80;99.90;;;;;;5029362;28;20233;-64
2021/12/12 07:34:07;;;;;;;5.00;4.38;;;-0.80;99.90;;;;;;5029961;28;20209;-64
2021/12/12 07:36:37;;;;;;;6.22;4.65;;;-0.60;99.90;;;;;;5030280;28;20205;-64
2021/12/12 07:39:07;;;;;;;5.22;4.70;;;-0.50;99.90;;;;;;5030420;28;20680;-64
2021/12/12 07:41:35;;;;;;;4.80;4.35;;;-0.40;99.90;;;;;;5029850;28;20804;-64
2021/12/12 07:44:06;;;;;;;5.28;4.20;;;-0.30;99.90;;;;;;5029497;28;20208;-64
2021/12/12 07:46:34;;;;;;;5.47;4.50;;;-0.30;99.90;;;;;;5030160;28;20217;-65
2021/12/12 07:49:01;;;;;;;5.05;4.45;;;-0.20;99.90;;;;;;5030100;28;20206;-65
2021/12/12 07:51:29;;;;;;;5.30;4.47;;;-0.10;99.90;;;;;;5029806;28;20221;-64
2021/12/12 07:53:58;;;;;;;5.38;4.80;;;0.00;99.90;;;;;;5029696;28;20208;-65
2021/12/12 07:56:29;;;;;;;4.88;4.38;;;0.30;99.90;;;;;;5028969;28;20201;-65
2021/12/12 07:58:58;;;;;;;4.40;3.80;;;0.80;99.90;;;;;;5029900;28;20687;-65
2021/12/12 08:01:26;;;;;;;4.80;3.90;;;1.30;99.90;;;;;;5028984;28;20233;-65
2021/12/12 08:03:56;;;;;;;4.15;3.75;;;2.00;99.90;;;;;;5030001;28;20208;-65
2021/12/12 08:06:24;;;;;;;4.75;3.60;;;2.80;99.90;;;;;;5029655;28;20244;-65
2021/12/12 08:08:52;;;;;;;4.68;3.97;;;3.50;99.90;;;;;;5030030;28;20201;-65
2021/12/12 08:11:25;;;;;;;3.75;3.45;;;4.00;99.90;;;;;;5029235;28;20256;-64
2021/12/12 08:13:52;;;;;;;2.83;2.63;;;4.60;99.90;;;;;;5029112;28;20236;-64
2021/12/12 08:16:20;;;;;;;3.60;3.30;;;4.70;99.90;;;;;;5029578;28;20271;-65
2021/12/12 08:18:48;;;;;;;3.90;3.53;;;4.50;99.90;;;;;;5035518;28;20300;-65
2021/12/12 08:21:18;;;;;;;3.22;2.92;;;4.50;99.90;;;;;;5028831;28;20221;-65
2021/12/12 08:23:46;;;;;;;4.00;3.60;;;4.80;99.90;;;;;;5038977;28;20672;-65
2021/12/12 08:26:14;;;;;;;3.85;3.10;;;5.10;99.90;;;;;;5034138;28;20313;-65
2021/12/12 08:28:43;;;;;;;3.63;2.80;;;4.80;99.90;;;;;;5028267;28;20208;-65
2021/12/12 08:31:12;;;;;;;3.63;3.30;;;4.30;99.90;;;;;;5028508;28;20709;-65
2021/12/12 08:33:39;;;;;;;4.30;3.25;;;3.70;99.90;;;;;;5029781;28;20225;-65
2021/12/12 08:36:06;;;;;;;3.85;3.50;;;3.30;99.90;;;;;;5029539;28;20218;-65
2021/12/12 08:38:33;;;;;;;4.55;3.15;;;3.00;99.90;;;;;;5029379;28;20206;-65
2021/12/12 08:41:03;;;;;;;3.30;3.00;;;2.80;99.90;;;;;;5029098;28;20210;-65
2021/12/12 08:43:31;;;;;;;3.35;3.05;;;2.50;99.90;;;;;;5029476;28;20229;-65
2021/12/12 08:46:02;;;;;;;3.42;3.13;;;2.40;99.90;;;;;;5029617;28;20213;-65
2021/12/12 08:48:32;;;;;;;2.95;2.75;;;2.10;99.90;;;;;;5029103;28;20482;-65
2021/12/12 08:51:02;;;;;;;3.97;3.20;;;2.10;99.90;;;;;;5028886;28;20236;-65
2021/12/12 08:53:29;;;;;;;4.38;3.70;;;2.00;99.90;;;;;;5029606;28;20209;-64
2021/12/12 08:55:58;;;;;;;2.90;2.60;;;1.90;99.90;;;;;;5029344;28;20702;-64
2021/12/12 08:58:27;;;;;;;3.42;2.97;;;1.80;99.90;;;;;;5029604;28;20707;-64
2021/12/12 09:01:00;;;;;;;3.17;2.40;;;1.80;99.90;;;;;;5028726;28;20209;-65
2021/12/12 09:03:35;;;;;;;3.53;2.80;;;1.80;99.90;;;;;;5029996;28;20202;-64
2021/12/12 09:06:02;;;;;;;5.45;3.28;;;1.80;99.90;;;;;;5032609;28;20204;-65
2021/12/12 09:08:36;;;;;;;3.60;3.25;;;1.80;99.90;;;;;;5046902;28;20216;-65
2021/12/12 09:11:07;;;;;;;2.78;2.53;;;1.90;99.90;;;;;;5033454;28;20221;-65
2021/12/12 09:13:40;;;;;;;2.88;2.60;;;2.10;99.90;;;;;;5032714;28;20209;-65
2021/12/12 09:16:11;;;;;;;3.05;2.70;;;2.20;99.90;;;;;;5032719;28;20198;-65
2021/12/12 09:18:43;;;;;;;3.00;2.58;;;2.30;99.90;;;;;;5032462;28;20221;-65
2021/12/12 09:21:13;;;;;;;3.90;2.70;;;2.50;99.90;;;;;;5031840;28;20696;-65
2021/12/12 09:23:45;;;;;;;2.78;2.47;;;2.80;99.90;;;;;;5032631;28;20237;-65
2021/12/12 09:26:15;;;;;;;3.05;2.45;;;3.00;99.90;;;;;;5031824;28;20214;-65
2021/12/12 09:28:52;;;;;;;3.28;2.97;;;3.10;99.90;;;;;;5032584;28;20202;-65
2021/12/12 09:31:26;;;;;;;3.00;2.60;;;3.00;99.90;;;;;;5031909;28;20213;-65
2021/12/12 09:33:57;;;;;;;3.38;2.30;;;2.80;99.90;;;;;;5032890;28;20220;-65
2021/12/12 09:36:30;;;;;;;3.88;2.95;;;2.60;99.90;;;;;;5031543;28;20214;-65
2021/12/12 09:39:02;;;;;;;2.45;2.25;;;2.50;99.90;;;;;;5032525;28;20206;-66
2021/12/12 09:41:42;;;;;;;3.47;2.40;;;2.50;99.90;;;;;;5031565;28;20225;-65
2021/12/12 09:44:48;;;;;;;3.97;2.60;;;2.70;99.90;;;;;;5032362;28;20221;-65
2021/12/12 09:47:57;;;;;;;2.78;2.58;;;3.10;99.90;;;;;;5031752;28;20221;-65
2021/12/12 09:53:51;;;;;;;3.17;2.35;;;3.60;99.90;;;;;;5031732;28;20205;-65
2021/12/12 09:56:29;;;;;;;2.80;2.50;;;3.70;99.90;;;;;;5031678;28;20202;-65
2021/12/12 09:59:03;;;;;;;2.53;2.25;;;3.70;99.90;;;;;;5032141;28;20205;-65
2021/12/12 10:01:35;;;;;;;2.60;2.40;;;3.80;99.90;;;;;;5031048;28;20626;-65
2021/12/12 10:04:18;;;;;;;2.75;2.17;;;4.00;99.90;;;;;;5031943;28;20206;-65
2021/12/12 10:06:52;;;;;;;2.40;2.20;;;4.40;99.90;;;;;;5031383;28;20272;-65
2021/12/12 10:09:25;;;;;;;3.47;2.70;;;4.60;99.90;;;;;;5031728;28;20205;-65
2021/12/12 10:12:00;;;;;;;3.45;2.38;;;4.40;99.90;;;;;;5030929;28;20214;-65
2021/12/12 10:14:39;;;;;;;2.60;2.28;;;4.10;99.90;;;;;;5031604;28;20202;-64
2021/12/12 10:17:14;;;;;;;2.33;2.13;;;3.90;99.90;;;;;;5031075;28;20198;-65
2021/12/12 10:19:50;;;;;;;3.30;2.80;;;3.70;99.90;;;;;;5031326;28;20204;-65
2021/12/12 10:22:28;;;;;;;2.50;2.08;;;3.60;99.90;;;;;;5030996;28;20233;-65
2021/12/12 10:25:01;;;;;;;2.80;2.60;;;3.70;99.90;;;;;;5031665;28;20651;-65
2021/12/12 10:27:34;;;;;;;3.50;2.47;;;3.70;99.90;;;;;;5030534;28;20221;-63
2021/12/12 10:30:11;;;;;;;2.30;2.10;;;3.70;99.90;;;;;;5031312;28;20240;-65
2021/12/12 10:32:49;;;;;;;2.90;2.65;;;3.70;99.90;;;;;;5030959;28;20221;-65
2021/12/12 10:35:21;;;;;;;2.67;2.13;;;3.50;99.90;;;;;;5030844;28;20703;-65
2021/12/12 10:37:54;;;;;;;3.45;2.67;;;3.60;99.90;;;;;;5030969;28;20661;-65
2021/12/12 10:40:25;;;;;;;2.03;1.73;;;3.70;99.90;;;;;;5031289;28;20209;-65
2021/12/12 10:42:55;;;;;;;3.55;2.85;;;3.70;99.90;;;;;;5030243;28;20229;-65
2021/12/12 10:45:28;;;;;;;3.22;2.78;;;3.60;99.90;;;;;;5030964;28;20214;-65
2021/12/12 10:47:59;;;;;;;2.63;2.40;;;3.50;99.90;;;;;;5030196;28;20225;-65
2021/12/12 10:50:35;;;;;;;2.30;2.10;;;3.50;99.90;;;;;;5031053;28;20209;-65
2021/12/12 10:53:08;;;;;;;3.53;2.10;;;3.60;99.90;;;;;;5030261;28;20233;-65
2021/12/12 10:55:41;;;;;;;2.75;2.55;;;3.60;99.90;;;;;;5030783;28;20202;-65
2021/12/12 10:58:13;;;;;;;3.05;2.00;;;3.70;99.90;;;;;;5030351;28;20205;-65
2021/12/12 11:00:44;;;;;;;2.92;2.63;;;3.80;99.90;;;;;;5030614;28;20618;-65
2021/12/12 11:03:19;;;;;;;2.50;2.30;;;4.00;99.90;;;;;;5030305;28;20226;-65
2021/12/12 11:05:55;;;;;;;4.50;2.28;;;4.20;99.90;;;;;;5030304;28;20201;-65
2021/12/12 11:08:32;;;;;;;3.50;2.15;;;4.40;99.90;;;;;;5030495;28;20225;-65
2021/12/12 11:11:00;;;;;;;3.45;2.28;;;4.50;99.90;;;;;;5030183;28;20198;-66
2021/12/12 11:13:33;;;;;;;7.38;2.20;;;4.50;99.90;;;;;;5030501;28;20205;-65
2021/12/12 11:16:05;;;;;;;5.15;2.72;;;4.60;99.90;;;;;;5030955;28;20275;-65
2021/12/12 11:18:38;;;;;;;3.25;2.03;;;4.80;99.90;;;;;;5029852;28;20249;-65
2021/12/12 11:21:12;;;;;;;3.38;2.60;;;5.10;99.90;;;;;;5030221;28;20206;-65
2021/12/12 11:23:46;;;;;;;2.70;2.13;;;5.30;99.90;;;;;;5030702;28;20205;-65
2021/12/12 11:26:18;;;;;;;2.25;2.00;;;5.20;99.90;;;;;;5030449;28;20354;-65
2021/12/12 11:28:48;;;;;;;3.15;1.80;;;5.10;99.90;;;;;;5030233;28;20243;-62
2021/12/12 11:31:19;;;;;;;2.13;1.90;;;4.80;99.90;;;;;;5028926;28;20256;-63
2021/12/12 11:33:49;;;;;;;2.08;1.88;;;4.70;99.90;;;;;;5030110;28;20209;-63
2021/12/12 11:36:30;;;;;;;2.30;2.10;;;4.50;99.90;;;;;;5029597;28;20205;-63
2021/12/12 11:39:06;;;;;;;2.55;2.35;;;4.40;99.90;;;;;;5039963;28;20202;-63
2021/12/12 11:41:39;;;;;;;2.38;2.17;;;4.40;99.90;;;;;;5034379;28;20249;-63
2021/12/12 11:44:14;;;;;;;3.47;1.90;;;4.40;99.90;;;;;;5029816;28;20225;-63
2021/12/12 11:46:49;;;;;;;2.85;2.17;;;4.50;99.90;;;;;;5030028;28;20198;-64
2021/12/12 11:49:22;;;;;;;2.50;2.30;;;4.50;99.90;;;;;;5029764;28;20217;-64
2021/12/12 11:51:52;;;;;;;2.50;2.30;;;4.70;99.90;;;;;;5030825;28;20217;-64
2021/12/12 11:54:33;;;;;;;2.08;1.88;;;4.80;99.90;;;;;;5030385;28;20209;-64
2021/12/12 11:57:05;;;;;;;2.63;2.25;;;4.70;99.90;;;;;;5037473;28;20712;-65
2021/12/12 11:59:36;;;;;;;3.97;2.67;;;4.60;99.90;;;;;;5050215;28;20232;-65
2021/12/12 12:02:22;;;;;;;2.63;2.42;;;4.50;99.90;;;;;;5049634;28;20746;-64
2021/12/12 12:05:02;;;;;;;2.83;2.30;;;4.50;99.90;;;;;;5049810;28;20212;-64
2021/12/12 12:07:44;;;;;;;2.67;2.05;;;4.40;99.90;;;;;;5049810;28;20236;-64
2021/12/12 12:10:18;;;;;;;2.65;2.10;;;4.50;99.90;;;;;;5050057;28;20530;-65
2021/12/12 12:13:17;;;;;;;4.00;2.25;;;4.60;99.90;;;;;;5049234;28;20225;-65
2021/12/12 12:15:49;;;;;;;2.13;1.92;;;4.60;99.90;;;;;;5038398;28;20205;-64
2021/12/12 12:18:31;;;;;;;2.30;2.10;;;4.60;99.90;;;;;;5050106;28;20619;-69
2021/12/12 12:21:05;;;;;;;3.63;2.25;;;4.70;99.90;;;;;;5110871;22;20220;-91
2021/12/12 12:23:59;;;;;;;2.85;2.05;;;4.80;99.90;;;;;;5073229;28;20482;-91
2021/12/12 12:30:04;;;;;;;2.15;1.95;;;4.70;99.90;;;;;;5073113;28;20223;-90
2021/12/12 12:33:14;;;;;;;3.03;2.17;;;4.70;99.90;;;;;;5073587;28;20200;-89
2021/12/12 12:36:18;;;;;;;2.50;2.13;;;5.10;99.90;;;;;;5075542;28;20196;-89
2021/12/12 12:39:18;;;;;;;5.13;2.95;;;5.30;99.90;;;;;;5073018;28;20208;-90
2021/12/12 12:42:50;;;;;;;3.60;2.50;;;5.30;99.90;;;;;;5071407;28;20212;-88
2021/12/12 12:46:00;;;;;;;2.10;1.90;;;5.30;99.90;;;;;;5077807;28;20204;-89
2021/12/12 12:49:23;;;;;;;2.17;1.85;;;5.40;99.90;;;;;;5078833;28;20246;-91
2021/12/12 12:52:18;;;;;;;2.67;1.92;;;5.30;99.90;;;;;;5079705;28;20212;-89
2021/12/12 12:54:48;;;;;;;3.17;2.50;;;5.20;99.90;;;;;;5084209;28;20216;-89
2021/12/12 12:57:25;;;;;;;3.15;2.10;;;5.20;99.90;;;;;;5078197;28;20211;-86
2021/12/12 13:00:03;;;;;;;3.65;2.47;;;5.10;99.90;;;;;;5079312;28;20224;-89
2021/12/12 13:02:38;;;;;;;2.47;2.10;;;5.10;99.90;;;;;;5077283;28;20294;-91
2021/12/12 13:05:41;;;;;;;2.58;2.33;;;5.20;99.90;;;;;;5077712;28;20212;-88
2021/12/12 13:08:56;;;;;;;2.70;2.13;;;5.30;99.90;;;;;;5077194;28;20223;-87
2021/12/12 13:11:30;;;;;;;2.30;2.00;;;5.40;99.90;;;;;;5077326;28;20208;-87
2021/12/12 13:14:18;;;;;;;2.20;2.00;;;5.50;99.90;;;;;;5077307;28;20201;-88
2021/12/12 13:16:49;;;;;;;2.72;2.17;;;5.60;99.90;;;;;;5077416;28;20207;-88
2021/12/12 13:19:31;;;;;;;3.30;2.22;;;5.70;99.90;;;;;;5075902;28;20220;-88
2021/12/12 13:22:06;;;;;;;2.22;2.03;;;5.80;99.90;;;;;;5074512;28;20215;-88
2021/12/12 13:24:41;;;;;;;2.85;2.30;;;5.90;99.90;;;;;;5075865;28;20223;-89
2021/12/12 13:27:19;;;;;;;3.47;2.33;;;5.70;99.90;;;;;;5076105;28;20204;-88
2021/12/12 13:30:04;;;;;;;3.25;2.22;;;5.70;99.90;;;;;;5077902;28;20300;-88
2021/12/12 13:32:39;;;;;;;2.85;2.40;;;5.60;99.90;;;;;;5076601;28;20257;-90
2021/12/12 13:35:13;;;;;;;2.97;2.20;;;5.50;99.90;;;;;;5076834;28;20200;-88
2021/12/12 13:37:46;;;;;;;3.55;2.45;;;5.50;99.90;;;;;;5076474;28;20208;-88
2021/12/12 13:40:23;;;;;;;4.80;2.28;;;5.50;99.90;;;;;;5077086;28;20243;-88
2021/12/12 13:42:58;;;;;;;3.42;2.42;;;5.40;99.90;;;;;;5075597;28;20200;-88
2021/12/12 13:45:35;;;;;;;2.75;2.40;;;5.30;99.90;;;;;;5076407;28;20212;-88